Time,TemperatureF,DewpointF,PressureIn,WindDirection,WindDirectionDegrees,WindSpeedMPH,WindSpeedGustMPH,Humidity,HourlyPrecipIn,Conditions,Clouds,dailyrainin,SolarRadiationWatts/m^2,SoftwareType,DateUTC
2013-05-13 00:01:00,52.0,38.0,-100.00,SSW,212,1.0,3.0,59,0.00,,,0.00,0.000000,,2013-05-13 06:01:00,
2013-05-13 00:11:00,52.0,38.0,-100.00,SSW,212,1.0,3.0,59,0.00,,,0.00,0.000000,,2013-05-13 06:11:00,
2013-05-13 00:21:00,52.0,38.0,-100.00,SSW,212,1.0,3.0,59,0.00,,,0.00,0.000000,,2013-05-13 06:21:00,
2013-05-13 00:31:00,52.0,38.0,-100.00,SSW,212,1.0,3.0,59,0.00,,,0.00,0.000000,,2013-05-13 06:31:00,
2013-05-13 01:01:00,50.0,38.0,-100.00,NE,56,1.0,3.0,63,0.00,,,0.00,0.000000,,2013-05-13 07:01:00,
2013-05-13 01:11:00,50.0,38.0,-100.00,NE,56,1.0,3.0,63,0.00,,,0.00,0.000000,,2013-05-13 07:11:00,
2013-05-13 01:22:00,50.0,38.0,-100.00,NE,56,1.0,3.0,63,0.00,,,0.00,0.000000,,2013-05-13 07:22:00,
2013-05-13 01:31:00,50.0,38.0,-100.00,NE,56,1.0,3.0,63,0.00,,,0.00,0.000000,,2013-05-13 07:31:00,
2013-05-13 01:41:00,50.0,38.0,-100.00,NE,56,1.0,3.0,63,0.00,,,0.00,0.000000,,2013-05-13 07:41:00,
2013-05-13 01:42:00,47.0,38.0,-100.00,SSW,200,0.0,1.0,70,0.00,,,0.00,0.000000,,2013-05-13 07:42:00,
2013-05-13 02:02:00,47.0,38.0,-100.00,SSW,200,0.0,1.0,70,0.00,,,0.00,0.000000,,2013-05-13 08:02:00,
2013-05-13 02:11:00,47.0,38.0,-100.00,SSW,200,0.0,1.0,70,0.00,,,0.00,0.000000,,2013-05-13 08:11:00,
2013-05-13 02:21:00,47.0,38.0,-100.00,SSW,200,0.0,1.0,70,0.00,,,0.00,0.000000,,2013-05-13 08:21:00,
2013-05-13 02:31:00,47.0,38.0,-100.00,SSW,200,0.0,1.0,70,0.00,,,0.00,0.000000,,2013-05-13 08:31:00,
2013-05-13 02:42:00,46.0,39.0,-100.00,NW,323,0.0,0.0,76,0.00,,,0.00,0.000000,,2013-05-13 08:42:00,
2013-05-13 03:01:00,46.0,39.0,-100.00,NW,323,0.0,0.0,76,0.00,,,0.00,0.000000,,2013-05-13 09:01:00,
2013-05-13 03:11:00,46.0,39.0,-100.00,NW,323,0.0,0.0,76,0.00,,,0.00,0.000000,,2013-05-13 09:11:00,
2013-05-13 03:21:00,46.0,39.0,-100.00,NW,323,0.0,0.0,76,0.00,,,0.00,0.000000,,2013-05-13 09:21:00,
2013-05-13 03:33:00,46.0,39.0,-100.00,NW,323,0.0,0.0,76,0.00,,,0.00,0.000000,,2013-05-13 09:33:00,
2013-05-13 03:42:00,44.0,40.0,-100.00,NNW,332,0.0,0.0,87,0.00,,,0.00,0.000000,,2013-05-13 09:42:00,
2013-05-13 04:03:00,44.0,40.0,-100.00,NNW,332,0.0,0.0,87,0.00,,,0.00,0.000000,,2013-05-13 10:03:00,
2013-05-13 04:12:00,44.0,40.0,-100.00,NNW,332,0.0,0.0,87,0.00,,,0.00,0.000000,,2013-05-13 10:12:00,
2013-05-13 04:22:00,44.0,40.0,-100.00,NNW,332,0.0,0.0,87,0.00,,,0.00,0.000000,,2013-05-13 10:22:00,
2013-05-13 04:32:00,44.0,40.0,-100.00,NNW,332,0.0,0.0,87,0.00,,,0.00,0.000000,,2013-05-13 10:32:00,
2013-05-13 04:42:00,43.0,37.0,-100.00,ESE,111,0.0,0.0,80,0.00,,,0.00,0.000000,,2013-05-13 10:42:00,
2013-05-13 05:02:00,43.0,37.0,-100.00,ESE,111,0.0,0.0,80,0.00,,,0.00,0.000000,,2013-05-13 11:02:00,
2013-05-13 05:12:00,43.0,37.0,-100.00,ESE,111,0.0,0.0,80,0.00,,,0.00,0.000000,,2013-05-13 11:12:00,
2013-05-13 05:21:00,43.0,37.0,-100.00,ESE,111,0.0,0.0,80,0.00,,,0.00,0.000000,,2013-05-13 11:21:00,
2013-05-13 05:32:00,43.0,37.0,-100.00,ESE,111,0.0,0.0,80,0.00,,,0.00,0.000000,,2013-05-13 11:32:00,
2013-05-13 05:42:00,42.0,37.0,-100.00,NNE,16,1.0,3.0,82,0.00,,,0.00,0.000000,,2013-05-13 11:42:00,
2013-05-13 06:01:00,42.0,37.0,-100.00,NNE,16,1.0,3.0,82,0.00,,,0.00,0.000000,,2013-05-13 12:01:00,
2013-05-13 06:11:00,42.0,37.0,-100.00,NNE,16,1.0,3.0,82,0.00,,,0.00,0.000000,,2013-05-13 12:11:00,
2013-05-13 06:21:00,42.0,37.0,-100.00,NNE,16,1.0,3.0,82,0.00,,,0.00,0.000000,,2013-05-13 12:21:00,
2013-05-13 06:32:00,42.0,37.0,-100.00,NNE,16,1.0,3.0,82,0.00,,,0.00,0.000000,,2013-05-13 12:32:00,
2013-05-13 06:42:00,43.0,34.0,-100.00,North,10,1.0,2.0,70,0.00,,,0.00,6.000000,,2013-05-13 12:42:00,
2013-05-13 07:01:00,43.0,34.0,-100.00,North,10,1.0,2.0,70,0.00,,,0.00,6.000000,,2013-05-13 13:01:00,
2013-05-13 07:11:00,43.0,34.0,-100.00,North,10,1.0,2.0,70,0.00,,,0.00,6.000000,,2013-05-13 13:11:00,
2013-05-13 07:21:00,43.0,34.0,-100.00,North,10,1.0,2.0,70,0.00,,,0.00,6.000000,,2013-05-13 13:21:00,
2013-05-13 07:31:00,43.0,34.0,-100.00,North,10,1.0,2.0,70,0.00,,,0.00,6.000000,,2013-05-13 13:31:00,
2013-05-13 08:02:00,49.0,37.0,-100.00,North,6,0.0,2.0,64,0.00,,,0.00,39.000000,,2013-05-13 14:02:00,
2013-05-13 08:11:00,49.0,37.0,-100.00,North,6,0.0,2.0,64,0.00,,,0.00,39.000000,,2013-05-13 14:11:00,
2013-05-13 08:22:00,49.0,37.0,-100.00,North,6,0.0,2.0,64,0.00,,,0.00,39.000000,,2013-05-13 14:22:00,
2013-05-13 08:32:00,49.0,37.0,-100.00,North,6,0.0,2.0,64,0.00,,,0.00,39.000000,,2013-05-13 14:32:00,
2013-05-13 08:41:00,49.0,37.0,-100.00,North,6,0.0,2.0,64,0.00,,,0.00,39.000000,,2013-05-13 14:41:00,
2013-05-13 08:42:00,64.0,39.0,-100.00,NE,47,2.0,5.0,39,0.00,,,0.00,354.000000,,2013-05-13 14:42:00,
2013-05-13 09:01:00,64.0,39.0,-100.00,NE,47,2.0,5.0,39,0.00,,,0.00,354.000000,,2013-05-13 15:01:00,
2013-05-13 09:11:00,64.0,39.0,-100.00,NE,47,2.0,5.0,39,0.00,,,0.00,354.000000,,2013-05-13 15:11:00,
2013-05-13 09:21:00,64.0,39.0,-100.00,NE,47,2.0,5.0,39,0.00,,,0.00,354.000000,,2013-05-13 15:21:00,
2013-05-13 09:31:00,64.0,39.0,-100.00,NE,47,2.0,5.0,39,0.00,,,0.00,354.000000,,2013-05-13 15:31:00,
2013-05-13 09:42:00,72.0,37.0,-100.00,SW,230,2.0,4.0,28,0.00,,,0.00,551.000000,,2013-05-13 15:42:00,
2013-05-13 10:03:00,72.0,37.0,-100.00,SW,230,2.0,4.0,28,0.00,,,0.00,551.000000,,2013-05-13 16:03:00,
2013-05-13 10:12:00,72.0,37.0,-100.00,SW,230,2.0,4.0,28,0.00,,,0.00,551.000000,,2013-05-13 16:12:00,
2013-05-13 10:21:00,72.0,37.0,-100.00,SW,230,2.0,4.0,28,0.00,,,0.00,551.000000,,2013-05-13 16:21:00,
2013-05-13 10:33:00,72.0,37.0,-100.00,SW,230,2.0,4.0,28,0.00,,,0.00,551.000000,,2013-05-13 16:33:00,
2013-05-13 10:42:00,77.0,34.0,-100.00,South,176,3.0,10.0,21,0.00,,,0.00,730.000000,,2013-05-13 16:42:00,
2013-05-13 11:02:00,77.0,34.0,-100.00,South,176,3.0,10.0,21,0.00,,,0.00,730.000000,,2013-05-13 17:02:00,
2013-05-13 11:12:00,77.0,34.0,-100.00,South,176,3.0,10.0,21,0.00,,,0.00,730.000000,,2013-05-13 17:12:00,
2013-05-13 11:21:00,77.0,34.0,-100.00,South,176,3.0,10.0,21,0.00,,,0.00,730.000000,,2013-05-13 17:21:00,
2013-05-13 11:32:00,77.0,34.0,-100.00,South,176,3.0,10.0,21,0.00,,,0.00,730.000000,,2013-05-13 17:32:00,
2013-05-13 11:42:00,80.0,34.0,-100.00,SSW,198,4.0,7.0,19,0.00,,,0.00,872.000000,,2013-05-13 17:42:00,
2013-05-13 12:03:00,80.0,34.0,-100.00,SSW,198,4.0,7.0,19,0.00,,,0.00,872.000000,,2013-05-13 18:03:00,
2013-05-13 12:12:00,80.0,34.0,-100.00,SSW,198,4.0,7.0,19,0.00,,,0.00,872.000000,,2013-05-13 18:12:00,
2013-05-13 12:23:00,80.0,34.0,-100.00,SSW,198,4.0,7.0,19,0.00,,,0.00,872.000000,,2013-05-13 18:23:00,
2013-05-13 12:32:00,80.0,34.0,-100.00,SSW,198,4.0,7.0,19,0.00,,,0.00,872.000000,,2013-05-13 18:32:00,
2013-05-13 12:42:00,83.0,35.0,-100.00,WSW,250,4.0,9.0,18,0.00,,,0.00,957.000000,,2013-05-13 18:42:00,
2013-05-13 13:01:00,83.0,35.0,-100.00,WSW,250,4.0,9.0,18,0.00,,,0.00,957.000000,,2013-05-13 19:01:00,
2013-05-13 13:11:00,83.0,35.0,-100.00,WSW,250,4.0,9.0,18,0.00,,,0.00,957.000000,,2013-05-13 19:11:00,
2013-05-13 13:21:00,83.0,35.0,-100.00,WSW,250,4.0,9.0,18,0.00,,,0.00,957.000000,,2013-05-13 19:21:00,
2013-05-13 13:32:00,83.0,35.0,-100.00,WSW,250,4.0,9.0,18,0.00,,,0.00,957.000000,,2013-05-13 19:32:00,
2013-05-13 13:42:00,85.0,32.0,-100.00,SSE,157,3.0,9.0,15,0.00,,,0.00,1058.000000,,2013-05-13 19:42:00,
2013-05-13 14:02:00,85.0,32.0,-100.00,SSE,157,3.0,9.0,15,0.00,,,0.00,1058.000000,,2013-05-13 20:02:00,
2013-05-13 14:11:00,85.0,32.0,-100.00,SSE,157,3.0,9.0,15,0.00,,,0.00,1058.000000,,2013-05-13 20:11:00,
2013-05-13 14:23:00,85.0,32.0,-100.00,SSE,157,3.0,9.0,15,0.00,,,0.00,1058.000000,,2013-05-13 20:23:00,
2013-05-13 14:33:00,85.0,32.0,-100.00,SSE,157,3.0,9.0,15,0.00,,,0.00,1058.000000,,2013-05-13 20:33:00,
2013-05-13 14:42:00,89.0,34.0,-100.00,WSW,255,3.0,7.0,14,0.00,,,0.00,958.000000,,2013-05-13 20:42:00,
2013-05-13 15:03:00,89.0,34.0,-100.00,WSW,255,3.0,7.0,14,0.00,,,0.00,958.000000,,2013-05-13 21:03:00,
2013-05-13 15:14:00,89.0,34.0,-100.00,WSW,255,3.0,7.0,14,0.00,,,0.00,958.000000,,2013-05-13 21:14:00,
2013-05-13 15:23:00,89.0,34.0,-100.00,WSW,255,3.0,7.0,14,0.00,,,0.00,958.000000,,2013-05-13 21:23:00,
2013-05-13 15:33:00,89.0,34.0,-100.00,WSW,255,3.0,7.0,14,0.00,,,0.00,958.000000,,2013-05-13 21:33:00,
2013-05-13 15:42:00,89.0,32.0,-100.00,SW,234,2.0,13.0,13,0.00,,,0.00,883.000000,,2013-05-13 21:42:00,
2013-05-13 16:02:00,89.0,32.0,-100.00,SW,234,2.0,13.0,13,0.00,,,0.00,883.000000,,2013-05-13 22:02:00,
2013-05-13 16:12:00,89.0,32.0,-100.00,SW,234,2.0,13.0,13,0.00,,,0.00,883.000000,,2013-05-13 22:12:00,
2013-05-13 16:23:00,89.0,32.0,-100.00,SW,234,2.0,13.0,13,0.00,,,0.00,883.000000,,2013-05-13 22:23:00,
2013-05-13 16:32:00,89.0,32.0,-100.00,SW,234,2.0,13.0,13,0.00,,,0.00,883.000000,,2013-05-13 22:32:00,
2013-05-13 16:42:00,89.0,32.0,-100.00,WSW,258,3.0,9.0,13,0.00,,,0.00,711.000000,,2013-05-13 22:42:00,
2013-05-13 17:02:00,89.0,32.0,-100.00,WSW,258,3.0,9.0,13,0.00,,,0.00,711.000000,,2013-05-13 23:02:00,
2013-05-13 17:12:00,89.0,32.0,-100.00,WSW,258,3.0,9.0,13,0.00,,,0.00,711.000000,,2013-05-13 23:12:00,
2013-05-13 17:23:00,89.0,32.0,-100.00,WSW,258,3.0,9.0,13,0.00,,,0.00,711.000000,,2013-05-13 23:23:00,
2013-05-13 17:33:00,89.0,32.0,-100.00,WSW,258,3.0,9.0,13,0.00,,,0.00,711.000000,,2013-05-13 23:33:00,
2013-05-13 18:02:00,88.0,31.0,-100.00,WSW,258,3.0,7.0,13,0.00,,,0.00,529.000000,,2013-05-14 00:02:00,
2013-05-13 18:12:00,88.0,31.0,-100.00,WSW,258,3.0,7.0,13,0.00,,,0.00,529.000000,,2013-05-14 00:12:00,
2013-05-13 18:22:00,88.0,31.0,-100.00,WSW,258,3.0,7.0,13,0.00,,,0.00,529.000000,,2013-05-14 00:22:00,
2013-05-13 18:31:00,88.0,31.0,-100.00,WSW,258,3.0,7.0,13,0.00,,,0.00,529.000000,,2013-05-14 00:31:00,
2013-05-13 18:41:00,88.0,31.0,-100.00,WSW,258,3.0,7.0,13,0.00,,,0.00,529.000000,,2013-05-14 00:41:00,
2013-05-13 18:42:00,83.0,29.0,-100.00,South,182,2.0,6.0,14,0.00,,,0.00,319.000000,,2013-05-14 00:42:00,
2013-05-13 19:02:00,83.0,29.0,-100.00,South,182,2.0,6.0,14,0.00,,,0.00,319.000000,,2013-05-14 01:02:00,
2013-05-13 19:11:00,83.0,29.0,-100.00,South,182,2.0,6.0,14,0.00,,,0.00,319.000000,,2013-05-14 01:11:00,
2013-05-13 19:21:00,83.0,29.0,-100.00,South,182,2.0,6.0,14,0.00,,,0.00,319.000000,,2013-05-14 01:21:00,
2013-05-13 19:32:00,83.0,29.0,-100.00,South,182,2.0,6.0,14,0.00,,,0.00,319.000000,,2013-05-14 01:32:00,
2013-05-13 19:42:00,74.0,32.0,-100.00,ESE,120,1.0,7.0,21,0.00,,,0.00,39.000000,,2013-05-14 01:42:00,
2013-05-13 20:02:00,74.0,32.0,-100.00,ESE,120,1.0,7.0,21,0.00,,,0.00,39.000000,,2013-05-14 02:02:00,
2013-05-13 20:11:00,74.0,32.0,-100.00,ESE,120,1.0,7.0,21,0.00,,,0.00,39.000000,,2013-05-14 02:11:00,
2013-05-13 20:22:00,74.0,32.0,-100.00,ESE,120,1.0,7.0,21,0.00,,,0.00,39.000000,,2013-05-14 02:22:00,
2013-05-13 20:32:00,74.0,32.0,-100.00,ESE,120,1.0,7.0,21,0.00,,,0.00,39.000000,,2013-05-14 02:32:00,
2013-05-13 20:42:00,65.0,39.0,-100.00,ESE,119,0.0,1.0,38,0.00,,,0.00,3.000000,,2013-05-14 02:42:00,
2013-05-13 21:01:00,65.0,39.0,-100.00,ESE,119,0.0,1.0,38,0.00,,,0.00,3.000000,,2013-05-14 03:01:00,
2013-05-13 21:11:00,65.0,39.0,-100.00,ESE,119,0.0,1.0,38,0.00,,,0.00,3.000000,,2013-05-14 03:11:00,
2013-05-13 21:21:00,65.0,39.0,-100.00,ESE,119,0.0,1.0,38,0.00,,,0.00,3.000000,,2013-05-14 03:21:00,
2013-05-13 21:33:00,65.0,39.0,-100.00,ESE,119,0.0,1.0,38,0.00,,,0.00,3.000000,,2013-05-14 03:33:00,
2013-05-13 21:42:00,62.0,35.0,-100.00,WSW,247,0.0,1.0,36,0.00,,,0.00,0.000000,,2013-05-14 03:42:00,
2013-05-13 22:03:00,62.0,35.0,-100.00,WSW,247,0.0,1.0,36,0.00,,,0.00,0.000000,,2013-05-14 04:03:00,
2013-05-13 22:13:00,62.0,35.0,-100.00,WSW,247,0.0,1.0,36,0.00,,,0.00,0.000000,,2013-05-14 04:13:00,
2013-05-13 22:23:00,62.0,35.0,-100.00,WSW,247,0.0,1.0,36,0.00,,,0.00,0.000000,,2013-05-14 04:23:00,
2013-05-13 22:32:00,62.0,35.0,-100.00,WSW,247,0.0,1.0,36,0.00,,,0.00,0.000000,,2013-05-14 04:32:00,
2013-05-13 22:42:00,62.0,32.0,-100.00,West,271,0.0,4.0,32,0.00,,,0.00,0.000000,,2013-05-14 04:42:00,
2013-05-13 23:02:00,62.0,32.0,-100.00,West,271,0.0,4.0,32,0.00,,,0.00,0.000000,,2013-05-14 05:02:00,
2013-05-13 23:12:00,62.0,32.0,-100.00,West,271,0.0,4.0,32,0.00,,,0.00,0.000000,,2013-05-14 05:12:00,
2013-05-13 23:22:00,62.0,32.0,-100.00,West,271,0.0,4.0,32,0.00,,,0.00,0.000000,,2013-05-14 05:22:00,
2013-05-13 23:32:00,62.0,32.0,-100.00,West,271,0.0,4.0,32,0.00,,,0.00,0.000000,,2013-05-14 05:32:00,
2013-05-13 23:42:00,58.0,33.0,-100.00,SW,228,1.0,5.0,39,0.00,,,0.00,0.000000,,2013-05-14 05:42:00,